Time;durP1;ratioP1;P1;durP2;ratioP2;P2;SDS_P1;SDS_P2;PMS_P1;PMS_P2;Temp;Humidity;BMP_temperature;BMP_pressure;BME280_temperature;BME280_humidity;BME280_pressure;Samples;Min_cycle;Max_cycle;Signal;HPM_P1;HPM_P2
2021/08/05 00:02:01;;;;;;;7.13;6.43;;;16.60;99.90;;;;;;4920016;29;20203;-70
2021/08/05 00:04:26;;;;;;;7.43;6.70;;;16.60;99.90;;;;;;4920097;29;20411;-69
2021/08/05 00:06:52;;;;;;;7.07;6.47;;;16.50;99.90;;;;;;4918701;29;20206;-70
2021/08/05 00:09:18;;;;;;;7.80;7.13;;;16.40;99.90;;;;;;4919883;29;20183;-70
2021/08/05 00:11:43;;;;;;;8.20;7.40;;;16.30;99.90;;;;;;4920139;29;20209;-70
2021/08/05 00:14:09;;;;;;;7.70;7.00;;;16.20;99.90;;;;;;4919580;29;20554;-70
2021/08/05 00:16:35;;;;;;;7.03;6.43;;;16.20;99.90;;;;;;4919751;29;20262;-69
2021/08/05 00:19:00;;;;;;;8.40;7.50;;;16.30;99.90;;;;;;4919679;29;20602;-70
2021/08/05 00:21:26;;;;;;;7.53;6.83;;;16.30;99.90;;;;;;4919995;29;20171;-70
2021/08/05 00:23:51;;;;;;;7.13;6.53;;;16.40;99.90;;;;;;4919812;29;20289;-70
2021/08/05 00:26:17;;;;;;;8.30;7.50;;;16.40;99.90;;;;;;4917955;29;20533;-70
2021/08/05 00:28:43;;;;;;;7.10;6.43;;;16.40;99.90;;;;;;4919332;29;20236;-71
2021/08/05 00:31:10;;;;;;;6.77;6.27;;;16.50;99.90;;;;;;4919544;29;20175;-70
2021/08/05 00:33:37;;;;;;;6.43;5.83;;;16.50;99.90;;;;;;4919099;29;20187;-71
2021/08/05 00:36:03;;;;;;;6.83;6.20;;;16.40;99.90;;;;;;4919518;29;20435;-71
2021/08/05 00:38:28;;;;;;;6.97;6.37;;;16.40;99.90;;;;;;4919208;29;20813;-70
2021/08/05 00:40:54;;;;;;;7.30;6.67;;;16.40;99.90;;;;;;4921165;29;20439;-70
2021/08/05 00:43:21;;;;;;;6.60;6.00;;;16.50;99.90;;;;;;4922648;29;20190;-71
2021/08/05 00:45:46;;;;;;;7.97;7.37;;;16.40;99.90;;;;;;4922392;29;20210;-70
2021/08/05 00:48:12;;;;;;;8.10;7.30;;;16.30;99.90;;;;;;4922543;29;20446;-71
2021/08/05 00:50:38;;;;;;;7.87;6.53;;;16.30;99.90;;;;;;4920463;29;20568;-70
2021/08/05 00:53:04;;;;;;;8.27;7.57;;;16.30;99.90;;;;;;4922571;29;20430;-71
2021/08/05 00:55:30;;;;;;;7.90;7.03;;;16.40;99.90;;;;;;4921347;29;20163;-70
2021/08/05 00:57:56;;;;;;;8.03;6.20;;;16.40;99.90;;;;;;4921607;29;20963;-71
2021/08/05 01:00:23;;;;;;;8.63;6.80;;;16.40;99.90;;;;;;4921515;29;20286;-71
2021/08/05 01:03:02;;;;;;;7.47;6.87;;;16.40;99.90;;;;;;4921565;29;20191;-71
2021/08/05 01:05:30;;;;;;;6.37;5.87;;;16.40;99.90;;;;;;4921443;29;20510;-71
2021/08/05 01:08:01;;;;;;;6.97;6.37;;;16.50;99.90;;;;;;4920177;29;20798;-71
2021/08/05 01:10:34;;;;;;;7.23;6.63;;;16.60;99.90;;;;;;4919395;29;20399;-71
2021/08/05 01:13:22;;;;;;;7.20;6.60;;;16.60;99.90;;;;;;4918678;29;20446;-71
2021/08/05 01:15:50;;;;;;;7.40;6.70;;;16.70;99.90;;;;;;4918573;29;20414;-70
2021/08/05 01:18:24;;;;;;;7.10;6.50;;;16.70;99.90;;;;;;4918909;29;20478;-71
2021/08/05 01:20:49;;;;;;;6.70;6.17;;;16.70;99.90;;;;;;4918975;29;20396;-71
2021/08/05 01:23:30;;;;;;;7.93;7.20;;;16.70;99.90;;;;;;4919186;29;20776;-71
2021/08/05 01:26:14;;;;;;;7.20;6.53;;;16.70;99.90;;;;;;4918442;29;20166;-71
2021/08/05 01:28:43;;;;;;;6.97;6.37;;;16.80;99.90;;;;;;4918418;29;21005;-71
2021/08/05 01:31:10;;;;;;;7.43;6.80;;;16.80;99.90;;;;;;4918411;29;20412;-70
2021/08/05 01:33:37;;;;;;;7.40;6.57;;;16.80;99.90;;;;;;4918296;29;20546;-71
2021/08/05 01:36:05;;;;;;;7.83;6.90;;;16.80;99.90;;;;;;4918031;29;20471;-71
2021/08/05 01:38:33;;;;;;;9.17;6.73;;;16.80;99.90;;;;;;4918642;29;20919;-70
2021/08/05 01:40:59;;;;;;;7.60;7.00;;;16.80;99.90;;;;;;4918546;29;20411;-71
2021/08/05 01:43:26;;;;;;;7.50;6.90;;;16.80;99.90;;;;;;4918357;29;20540;-70
2021/08/05 01:45:53;;;;;;;7.80;7.10;;;16.80;99.90;;;;;;4917817;29;20418;-71
2021/08/05 01:48:19;;;;;;;7.10;6.50;;;16.80;99.90;;;;;;4918513;29;20411;-71
2021/08/05 01:50:47;;;;;;;8.13;7.43;;;16.70;99.90;;;;;;4918088;29;20477;-71
2021/08/05 01:53:15;;;;;;;7.67;6.93;;;16.70;99.90;;;;;;4918236;29;20522;-71
2021/08/05 01:55:42;;;;;;;7.90;7.20;;;16.60;99.90;;;;;;4917865;29;20415;-71
2021/08/05 01:58:08;;;;;;;7.97;7.17;;;16.70;99.90;;;;;;4917850;29;20558;-71
2021/08/05 02:00:34;;;;;;;7.60;6.93;;;16.70;99.90;;;;;;4918096;29;20509;-71
2021/08/05 02:02:59;;;;;;;8.40;7.70;;;16.70;99.90;;;;;;4917151;29;20597;-71
2021/08/05 02:05:52;;;;;;;8.37;7.67;;;16.60;99.90;;;;;;4917831;29;20462;-71
2021/08/05 02:08:21;;;;;;;8.37;7.67;;;16.40;99.90;;;;;;4917897;29;20163;-71
2021/08/05 02:10:48;;;;;;;8.37;7.67;;;16.40;99.90;;;;;;4918222;29;20566;-71
2021/08/05 02:13:26;;;;;;;8.20;7.50;;;16.30;99.90;;;;;;4917711;29;20451;-71
2021/08/05 02:15:55;;;;;;;7.90;7.20;;;16.30;99.90;;;;;;4917439;29;20756;-70
2021/08/05 02:18:23;;;;;;;7.43;6.73;;;16.40;99.90;;;;;;4917657;29;20413;-71
2021/08/05 02:20:50;;;;;;;7.60;6.90;;;16.40;99.90;;;;;;4918388;29;20765;-71
2021/08/05 02:23:17;;;;;;;8.50;7.70;;;16.50;99.90;;;;;;4917486;29;20439;-71
2021/08/05 02:25:45;;;;;;;7.60;6.90;;;16.50;99.90;;;;;;4917288;29;20490;-70
2021/08/05 02:28:12;;;;;;;7.37;6.77;;;16.50;99.90;;;;;;4917517;29;20514;-71
2021/08/05 02:30:38;;;;;;;8.57;7.87;;;16.60;99.90;;;;;;4918105;29;20916;-71
2021/08/05 02:33:05;;;;;;;8.23;7.43;;;16.60;99.90;;;;;;4918582;29;20423;-70
2021/08/05 02:35:34;;;;;;;7.77;7.07;;;16.60;99.90;;;;;;4926044;28;20457;-71
2021/08/05 02:38:01;;;;;;;8.03;7.37;;;16.70;99.90;;;;;;4917408;29;20414;-71
2021/08/05 02:40:28;;;;;;;8.07;7.43;;;16.70;99.90;;;;;;4917417;29;20419;-70
2021/08/05 02:42:54;;;;;;;8.30;7.60;;;16.60;99.90;;;;;;4917839;29;21004;-70
2021/08/05 02:45:19;;;;;;;9.70;8.70;;;16.60;99.90;;;;;;4916549;29;20453;-70
2021/08/05 02:47:45;;;;;;;8.83;8.03;;;16.60;99.90;;;;;;4917698;29;20258;-71
2021/08/05 02:50:13;;;;;;;8.40;7.70;;;16.60;99.90;;;;;;4917603;29;20254;-71
2021/08/05 02:52:39;;;;;;;8.93;8.23;;;16.70;99.90;;;;;;4917484;29;20237;-70
2021/08/05 02:55:06;;;;;;;11.00;8.80;;;16.60;99.90;;;;;;4917402;29;20415;-71
2021/08/05 02:57:32;;;;;;;8.50;7.60;;;16.70;99.90;;;;;;4920324;29;20426;-71
2021/08/05 02:59:58;;;;;;;8.43;7.73;;;16.70;99.90;;;;;;4926434;29;20766;-71
2021/08/05 03:02:24;;;;;;;9.07;8.27;;;16.70;99.90;;;;;;4917818;29;20203;-71
2021/08/05 03:04:50;;;;;;;9.80;8.90;;;16.70;99.90;;;;;;4917421;29;20431;-71
2021/08/05 03:07:15;;;;;;;9.53;8.73;;;16.70;99.90;;;;;;4920030;29;20497;-70
2021/08/05 03:09:41;;;;;;;11.33;9.70;;;16.70;99.90;;;;;;4921073;29;20183;-71
2021/08/05 03:12:07;;;;;;;9.40;8.50;;;16.60;99.90;;;;;;4921259;29;20537;-71
2021/08/05 03:14:32;;;;;;;10.63;9.60;;;16.50;99.90;;;;;;4921182;29;20630;-71
2021/08/05 03:17:02;;;;;;;11.90;10.80;;;16.50;99.90;;;;;;4922402;29;20186;-71
2021/08/05 03:19:27;;;;;;;11.80;10.70;;;16.40;99.90;;;;;;4928851;29;20410;-70
2021/08/05 03:21:53;;;;;;;11.00;10.00;;;16.40;99.90;;;;;;4942003;29;20222;-71
2021/08/05 03:24:19;;;;;;;11.23;10.23;;;16.40;99.90;;;;;;4922568;29;20198;-71
2021/08/05 03:26:44;;;;;;;12.10;11.00;;;16.40;99.90;;;;;;4920775;29;20274;-71
2021/08/05 03:29:10;;;;;;;12.63;11.10;;;16.40;99.90;;;;;;4920735;29;20288;-70
2021/08/05 03:31:35;;;;;;;11.60;10.60;;;16.40;99.90;;;;;;4920674;29;20171;-71
2021/08/05 03:34:01;;;;;;;13.47;11.67;;;16.50;99.90;;;;;;4920000;29;20294;-70
2021/08/05 03:36:27;;;;;;;11.93;10.83;;;16.50;99.90;;;;;;4920741;29;20211;-71
2021/08/05 03:38:53;;;;;;;11.43;10.43;;;16.50;99.90;;;;;;4920088;29;20230;-70
2021/08/05 03:41:19;;;;;;;11.20;10.20;;;16.50;99.90;;;;;;4920587;29;20262;-70
2021/08/05 03:43:44;;;;;;;10.10;9.13;;;16.50;99.90;;;;;;4920224;29;20443;-70
2021/08/05 03:46:10;;;;;;;10.73;9.63;;;16.50;99.90;;;;;;4920196;29;20187;-70
2021/08/05 03:48:35;;;;;;;11.37;10.27;;;16.60;99.90;;;;;;4920597;29;20262;-70
2021/08/05 03:51:01;;;;;;;10.57;9.47;;;16.60;99.90;;;;;;4920705;29;20175;-71
2021/08/05 03:53:27;;;;;;;11.40;10.30;;;16.40;99.90;;;;;;4920196;29;20191;-70
2021/08/05 03:56:01;;;;;;;12.30;11.20;;;16.50;99.90;;;;;;4920209;29;20414;-70
2021/08/05 03:58:26;;;;;;;11.00;10.03;;;16.50;99.90;;;;;;4924858;29;20209;-70
2021/08/05 04:00:51;;;;;;;11.87;10.77;;;16.50;99.90;;;;;;4939596;29;20422;-70
2021/08/05 04:03:17;;;;;;;11.23;10.13;;;16.60;99.90;;;;;;4939492;29;20194;-70
2021/08/05 04:05:43;;;;;;;10.53;9.53;;;16.60;99.90;;;;;;4938986;29;20182;-70
2021/08/05 04:08:08;;;;;;;12.30;11.20;;;16.60;99.90;;;;;;4939054;29;20723;-70
2021/08/05 04:10:34;;;;;;;12.17;10.97;;;16.60;99.90;;;;;;4939522;29;20588;-71
2021/08/05 04:12:59;;;;;;;12.00;10.80;;;16.60;99.90;;;;;;4938840;29;20198;-70
2021/08/05 04:15:25;;;;;;;12.23;11.03;;;16.60;99.90;;;;;;4921734;29;20181;-70
2021/08/05 04:17:50;;;;;;;13.23;11.70;;;16.60;99.90;;;;;;4937870;29;20210;-70
2021/08/05 04:20:18;;;;;;;12.67;11.47;;;16.70;99.90;;;;;;4939357;29;20178;-70
2021/08/05 04:22:43;;;;;;;14.43;13.00;;;16.70;99.90;;;;;;4938294;29;20217;-70
2021/08/05 04:25:09;;;;;;;14.20;12.90;;;16.70;99.90;;;;;;4938348;29;20968;-70
2021/08/05 04:27:39;;;;;;;13.40;12.20;;;16.70;99.90;;;;;;4938180;29;20201;-70
2021/08/05 04:30:08;;;;;;;13.40;12.17;;;16.60;99.90;;;;;;4938860;29;20453;-70
2021/08/05 04:32:33;;;;;;;14.17;12.80;;;16.60;99.90;;;;;;4921624;29;20558;-71
2021/08/05 04:34:59;;;;;;;13.13;11.93;;;16.60;99.90;;;;;;4938624;29;20465;-70
2021/08/05 04:37:24;;;;;;;12.40;11.30;;;16.60;99.90;;;;;;4938959;29;20702;-70
2021/08/05 04:39:50;;;;;;;11.73;10.53;;;16.60;99.90;;;;;;4938693;29;20253;-70
2021/08/05 04:42:16;;;;;;;12.63;11.47;;;16.60;99.90;;;;;;4938510;29;20635;-70
2021/08/05 04:44:41;;;;;;;12.37;11.23;;;16.60;99.90;;;;;;4938030;29;20870;-71
2021/08/05 04:47:07;;;;;;;12.87;11.57;;;16.50;99.90;;;;;;4938393;29;20212;-70
2021/08/05 04:49:33;;;;;;;13.37;12.00;;;16.50;99.90;;;;;;4938268;29;20176;-70
2021/08/05 04:51:58;;;;;;;12.37;11.17;;;16.50;99.90;;;;;;4938811;29;20186;-70
2021/08/05 04:54:24;;;;;;;14.03;12.73;;;16.50;99.90;;;;;;4938005;29;20198;-70
2021/08/05 04:56:50;;;;;;;12.60;11.40;;;16.50;99.90;;;;;;4938391;29;20228;-70
2021/08/05 04:59:15;;;;;;;13.57;12.30;;;16.40;99.90;;;;;;4938050;29;20222;-70
2021/08/05 05:01:43;;;;;;;13.90;12.47;;;16.40;99.90;;;;;;4938451;29;20421;-70
2021/08/05 05:04:10;;;;;;;12.63;11.53;;;16.40;99.90;;;;;;4937530;29;20186;-70
2021/08/05 05:06:35;;;;;;;14.52;13.13;;;16.40;99.90;;;;;;4937638;29;20429;-70
2021/08/05 05:09:01;;;;;;;14.50;13.13;;;16.40;99.90;;;;;;4937636;29;20679;-70
2021/08/05 05:11:27;;;;;;;15.80;14.30;;;16.40;99.90;;;;;;4938002;29;20612;-70
2021/08/05 05:13:52;;;;;;;17.17;14.37;;;16.30;99.90;;;;;;4937891;29;20457;-70
2021/08/05 05:16:18;;;;;;;15.40;13.80;;;16.30;99.90;;;;;;4937501;29;20261;-71
2021/08/05 05:18:44;;;;;;;16.20;14.60;;;16.30;99.90;;;;;;4941194;29;20170;-70
2021/08/05 05:21:09;;;;;;;15.53;13.93;;;16.40;99.90;;;;;;4940568;29;20174;-70
2021/08/05 05:23:35;;;;;;;15.90;14.30;;;16.40;99.90;;;;;;4928635;29;20226;-71
2021/08/05 05:26:01;;;;;;;16.43;14.87;;;16.40;99.90;;;;;;4930374;29;20543;-71
2021/08/05 05:28:27;;;;;;;14.90;13.40;;;16.50;99.90;;;;;;4918562;29;20664;-71
2021/08/05 05:30:53;;;;;;;16.90;14.67;;;16.50;99.90;;;;;;4918656;29;20781;-71
2021/08/05 05:33:19;;;;;;;14.63;13.13;;;16.60;99.90;;;;;;4919108;29;20187;-71
2021/08/05 05:35:45;;;;;;;16.30;14.70;;;16.60;99.90;;;;;;4922909;29;20489;-71
2021/08/05 05:38:11;;;;;;;18.48;16.63;;;16.70;99.90;;;;;;4911249;29;20526;-70
2021/08/05 05:40:38;;;;;;;16.03;14.53;;;16.70;99.90;;;;;;4925177;29;20282;-70
2021/08/05 05:43:04;;;;;;;17.20;15.50;;;16.80;99.90;;;;;;4932320;29;20449;-70
2021/08/05 05:45:30;;;;;;;16.80;15.10;;;16.90;99.90;;;;;;4916026;29;20206;-70
2021/08/05 05:47:57;;;;;;;16.30;14.70;;;17.00;99.90;;;;;;4937278;29;20465;-70
2021/08/05 05:50:23;;;;;;;16.20;14.50;;;17.10;99.90;;;;;;4942126;29;20787;-70
2021/08/05 05:52:49;;;;;;;17.37;15.67;;;17.10;99.90;;;;;;4934617;29;20449;-70
2021/08/05 05:55:15;;;;;;;20.10;15.40;;;17.20;99.90;;;;;;4934117;29;20445;-70
2021/08/05 05:57:41;;;;;;;18.00;16.20;;;17.30;99.90;;;;;;4934420;29;20426;-71
2021/08/05 06:00:08;;;;;;;19.30;17.27;;;17.40;99.90;;;;;;4934378;29;21157;-70
2021/08/05 06:02:33;;;;;;;20.17;17.10;;;17.50;99.90;;;;;;4934588;29;20202;-70
2021/08/05 06:04:59;;;;;;;21.43;17.83;;;17.50;99.90;;;;;;4934591;29;20770;-70
2021/08/05 06:07:24;;;;;;;18.47;16.57;;;17.50;99.90;;;;;;4934271;29;20285;-71
2021/08/05 06:09:50;;;;;;;20.20;18.10;;;17.60;99.90;;;;;;4934477;29;20252;-70
2021/08/05 06:12:16;;;;;;;23.20;20.80;;;17.70;99.90;;;;;;4935724;29;20171;-71
2021/08/05 06:14:42;;;;;;;21.47;19.27;;;17.70;99.90;;;;;;4934665;29;20195;-69
2021/08/05 06:17:08;;;;;;;23.50;21.10;;;17.70;99.90;;;;;;4939532;29;20174;-70
2021/08/05 06:19:33;;;;;;;24.03;21.63;;;17.80;99.90;;;;;;4921962;29;20455;-71
2021/08/05 06:21:59;;;;;;;25.10;21.50;;;17.80;99.90;;;;;;4915338;29;20641;-71
2021/08/05 06:24:26;;;;;;;24.77;22.27;;;17.90;99.90;;;;;;4924873;29;20218;-71
2021/08/05 06:26:51;;;;;;;23.47;21.07;;;17.90;99.90;;;;;;4921161;29;20230;-71
2021/08/05 06:29:18;;;;;;;25.27;22.57;;;18.00;99.90;;;;;;4929288;29;20434;-71
2021/08/05 06:31:44;;;;;;;25.40;22.80;;;18.00;99.90;;;;;;4932462;29;20178;-70
2021/08/05 06:34:10;;;;;;;27.30;23.10;;;18.00;99.90;;;;;;4935623;29;20461;-71
2021/08/05 06:36:37;;;;;;;28.10;25.20;;;18.10;99.90;;;;;;4916357;29;20187;-70
2021/08/05 06:39:05;;;;;;;30.37;27.17;;;18.20;99.90;;;;;;4906901;29;20447;-70
2021/08/05 06:41:32;;;;;;;31.23;27.77;;;18.20;99.90;;;;;;4932471;29;20510;-69
2021/08/05 06:43:58;;;;;;;29.83;26.83;;;18.20;99.90;;;;;;4929165;29;20628;-71
2021/08/05 06:46:26;;;;;;;30.57;27.37;;;18.20;99.90;;;;;;4924701;29;20587;-71
2021/08/05 06:48:55;;;;;;;32.75;29.45;;;18.20;99.90;;;;;;4941293;29;20420;-70
2021/08/05 06:51:21;;;;;;;31.47;28.10;;;18.20;99.90;;;;;;4942003;29;20190;-70
2021/08/05 06:53:46;;;;;;;33.37;29.97;;;18.20;99.90;;;;;;4930475;29;20449;-70
2021/08/05 06:56:12;;;;;;;32.40;29.10;;;18.20;99.90;;;;;;4922696;29;20182;-71
2021/08/05 06:58:37;;;;;;;32.57;29.17;;;18.20;99.90;;;;;;4922846;29;20171;-69
2021/08/05 07:01:03;;;;;;;33.90;30.60;;;18.20;99.90;;;;;;4919622;29;20190;-71
2021/08/05 07:03:29;;;;;;;32.37;29.07;;;18.30;99.90;;;;;;4919829;29;20630;-70
2021/08/05 07:05:58;;;;;;;32.87;29.10;;;18.30;99.90;;;;;;4920485;29;20175;-70
2021/08/05 07:08:23;;;;;;;31.57;28.33;;;18.30;99.90;;;;;;4918138;29;20598;-70
2021/08/05 07:10:49;;;;;;;33.23;29.63;;;18.40;99.90;;;;;;4929175;29;20426;-70
2021/08/05 07:13:14;;;;;;;31.67;28.57;;;18.50;99.90;;;;;;4936419;29;20234;-70
2021/08/05 07:15:41;;;;;;;29.07;26.13;;;18.50;99.90;;;;;;4936634;29;20185;-70
2021/08/05 07:18:06;;;;;;;31.67;28.20;;;18.60;99.90;;;;;;4936516;29;20209;-70
2021/08/05 07:20:32;;;;;;;28.90;25.83;;;18.70;99.90;;;;;;4937583;29;20412;-70
2021/08/05 07:22:57;;;;;;;28.73;25.77;;;18.70;99.90;;;;;;4928799;29;20215;-71
2021/08/05 07:25:23;;;;;;;28.87;26.00;;;18.90;99.90;;;;;;4917547;29;20197;-71
2021/08/05 07:27:48;;;;;;;29.00;26.00;;;18.90;99.90;;;;;;4917609;29;20694;-71
2021/08/05 07:30:15;;;;;;;30.97;28.13;;;19.00;99.90;;;;;;4917243;29;20493;-70
2021/08/05 07:32:41;;;;;;;28.70;25.93;;;19.00;99.90;;;;;;4917885;29;20263;-70
2021/08/05 07:35:07;;;;;;;29.30;26.27;;;19.10;99.90;;;;;;4919188;29;20411;-70
2021/08/05 07:37:33;;;;;;;25.67;23.10;;;19.20;99.90;;;;;;4955539;29;20185;-71
2021/08/05 07:39:59;;;;;;;28.63;25.80;;;19.30;99.90;;;;;;4960198;29;20430;-70
2021/08/05 07:42:25;;;;;;;31.13;27.73;;;19.40;99.90;;;;;;4947327;29;20233;-70
2021/08/05 07:44:51;;;;;;;30.63;27.60;;;19.40;99.90;;;;;;4936660;29;20435;-70
2021/08/05 07:47:16;;;;;;;29.43;26.37;;;19.60;99.90;;;;;;4940019;29;20457;-70
2021/08/05 07:49:43;;;;;;;29.53;26.70;;;19.60;99.90;;;;;;4936469;29;20178;-70
2021/08/05 07:52:10;;;;;;;28.20;25.50;;;19.80;99.90;;;;;;4936006;29;20201;-70
2021/08/05 07:54:35;;;;;;;27.63;24.33;;;19.90;99.90;;;;;;4935882;29;20457;-70
2021/08/05 07:57:01;;;;;;;28.43;25.53;;;19.90;99.90;;;;;;4935632;29;20469;-70
2021/08/05 07:59:27;;;;;;;26.67;24.07;;;20.00;99.90;;;;;;4928228;29;20457;-70
2021/08/05 08:01:52;;;;;;;26.30;23.73;;;20.00;99.90;;;;;;4932822;29;20260;-70
2021/08/05 08:04:18;;;;;;;26.77;24.27;;;20.10;99.90;;;;;;4933422;29;20800;-70
2021/08/05 08:06:43;;;;;;;26.77;24.17;;;20.20;99.90;;;;;;4933729;29;20720;-70
2021/08/05 08:09:09;;;;;;;26.53;23.97;;;20.30;99.90;;;;;;4934796;29;20174;-70
2021/08/05 08:11:34;;;;;;;25.27;22.97;;;20.30;99.90;;;;;;4934124;29;20210;-70
2021/08/05 08:14:00;;;;;;;24.03;21.63;;;20.30;99.90;;;;;;4934331;29;20395;-70
2021/08/05 08:16:26;;;;;;;25.03;22.63;;;20.20;99.90;;;;;;4935092;29;20204;-70
2021/08/05 08:18:51;;;;;;;23.87;21.60;;;20.10;99.90;;;;;;4935396;29;20202;-71
2021/08/05 08:21:18;;;;;;;21.83;19.33;;;20.20;99.90;;;;;;4935701;29;20584;-70
2021/08/05 08:23:44;;;;;;;22.77;20.50;;;20.30;99.90;;;;;;4935224;29;20276;-70
2021/08/05 08:26:10;;;;;;;21.63;19.63;;;20.30;99.90;;;;;;4935933;29;20426;-70
2021/08/05 08:28:36;;;;;;;21.60;19.60;;;20.40;99.90;;;;;;4935782;29;20429;-69
2021/08/05 08:31:02;;;;;;;20.83;18.93;;;20.40;99.90;;;;;;4926286;29;20217;-70
2021/08/05 08:33:27;;;;;;;22.90;20.80;;;20.40;99.90;;;;;;4928069;29;20421;-70
2021/08/05 08:35:53;;;;;;;20.87;18.67;;;20.50;99.90;;;;;;4925950;29;20791;-70
2021/08/05 08:38:22;;;;;;;23.30;21.00;;;20.70;99.90;;;;;;4926246;29;20520;-70
2021/08/05 08:40:49;;;;;;;21.40;19.40;;;20.80;99.90;;;;;;4910498;29;20289;-70
2021/08/05 08:43:14;;;;;;;20.70;18.67;;;20.80;99.90;;;;;;4916131;29;20454;-69
2021/08/05 08:45:40;;;;;;;20.43;18.53;;;20.90;99.90;;;;;;4929563;29;20458;-69
2021/08/05 08:48:06;;;;;;;17.07;15.57;;;20.90;99.90;;;;;;4918123;29;20256;-70
2021/08/05 08:50:33;;;;;;;19.00;17.27;;;20.90;99.90;;;;;;4916109;29;20780;-70
2021/08/05 08:53:10;;;;;;;17.43;15.70;;;20.90;99.90;;;;;;4915795;29;20466;-70
2021/08/05 08:55:41;;;;;;;16.40;15.00;;;21.00;99.90;;;;;;4916195;29;20415;-70
2021/08/05 08:58:07;;;;;;;14.97;13.70;;;21.00;99.90;;;;;;4918905;29;20438;-70
2021/08/05 09:00:39;;;;;;;14.23;13.03;;;21.10;99.90;;;;;;4924124;29;20423;-70
2021/08/05 09:03:06;;;;;;;13.27;12.03;;;21.10;99.90;;;;;;4915445;29;20261;-71
2021/08/05 09:05:32;;;;;;;13.70;12.37;;;21.00;99.90;;;;;;4914960;29;20427;-70
2021/08/05 09:08:00;;;;;;;13.70;12.50;;;21.10;99.90;;;;;;4916951;29;20554;-69
2021/08/05 09:10:26;;;;;;;12.80;11.63;;;21.00;99.90;;;;;;4919215;29;20561;-70
2021/08/05 09:12:54;;;;;;;12.17;11.17;;;21.10;99.90;;;;;;4923700;29;20859;-70
2021/08/05 09:15:42;;;;;;;13.97;12.67;;;21.20;99.90;;;;;;4915658;29;20425;-70
2021/08/05 09:18:34;;;;;;;15.70;14.10;;;21.20;99.90;;;;;;4916383;29;20430;-71
2021/08/05 09:21:21;;;;;;;14.83;13.53;;;21.20;99.90;;;;;;4914755;29;20435;-70
2021/08/05 09:23:47;;;;;;;17.47;15.90;;;21.30;99.90;;;;;;4930159;29;20450;-70
2021/08/05 09:26:33;;;;;;;17.13;15.43;;;21.30;99.90;;;;;;4935533;29;20445;-70
2021/08/05 09:29:10;;;;;;;17.43;15.80;;;21.50;99.90;;;;;;4934690;29;20420;-70
2021/08/05 09:31:42;;;;;;;19.73;17.83;;;21.60;99.90;;;;;;4935604;29;20395;-69
2021/08/05 09:34:13;;;;;;;16.40;14.90;;;21.70;99.90;;;;;;4936079;29;20450;-69
2021/08/05 09:36:40;;;;;;;13.77;12.57;;;21.80;99.90;;;;;;4944344;29;20429;-69
2021/08/05 09:39:27;;;;;;;15.20;13.90;;;21.90;99.90;;;;;;4919169;29;20452;-70
2021/08/05 09:42:00;;;;;;;14.90;13.50;;;21.90;99.90;;;;;;4915793;29;20402;-70
2021/08/05 09:44:27;;;;;;;13.40;12.30;;;21.90;99.90;;;;;;4922768;29;20437;-70
2021/08/05 09:47:13;;;;;;;15.13;13.93;;;22.10;99.90;;;;;;4916802;29;20441;-70
2021/08/05 09:49:50;;;;;;;16.50;15.10;;;22.20;99.90;;;;;;4933970;29;20405;-71
2021/08/05 09:52:36;;;;;;;15.20;13.67;;;22.10;99.90;;;;;;4916585;29;20410;-70
2021/08/05 09:55:08;;;;;;;14.20;12.80;;;22.30;99.90;;;;;;4932836;29;21086;-71
2021/08/05 09:57:36;;;;;;;14.10;12.90;;;22.60;99.90;;;;;;4933889;29;20434;-70
2021/08/05 10:00:08;;;;;;;13.03;11.93;;;22.70;99.90;;;;;;4933613;29;20493;-70
2021/08/05 10:02:52;;;;;;;13.07;12.00;;;22.70;99.90;;;;;;4933643;29;20434;-70
2021/08/05 10:05:23;;;;;;;12.20;11.20;;;22.80;99.90;;;;;;4933977;29;20765;-69
2021/08/05 10:07:54;;;;;;;14.65;13.45;;;22.70;99.90;;;;;;4933630;29;20432;-69
2021/08/05 10:10:22;;;;;;;13.85;12.75;;;22.40;99.90;;;;;;4933281;29;20417;-69
2021/08/05 10:12:53;;;;;;;14.20;13.10;;;22.50;99.90;;;;;;4933596;29;20206;-69
2021/08/05 10:15:19;;;;;;;12.93;11.83;;;22.40;99.90;;;;;;4915943;29;20469;-69
2021/08/05 10:17:45;;;;;;;12.53;11.50;;;22.40;99.90;;;;;;4916756;29;20421;-69
2021/08/05 10:20:12;;;;;;;15.90;14.40;;;22.40;99.90;;;;;;4932203;29;20422;-68
2021/08/05 10:22:39;;;;;;;14.40;13.27;;;22.20;99.90;;;;;;4927665;29;20948;-68
2021/08/05 10:25:09;;;;;;;12.93;11.73;;;22.10;99.90;;;;;;4929148;29;20429;-70
2021/08/05 10:27:35;;;;;;;15.70;14.40;;;22.20;99.90;;;;;;4936844;29;20466;-71
2021/08/05 10:30:02;;;;;;;15.43;14.10;;;22.40;99.90;;;;;;4933263;29;20434;-70
2021/08/05 10:32:27;;;;;;;17.30;15.90;;;22.50;99.90;;;;;;4932460;29;20214;-70
2021/08/05 10:34:54;;;;;;;14.60;13.40;;;22.50;99.90;;;;;;4932600;29;20426;-70
2021/08/05 10:37:20;;;;;;;13.97;12.83;;;22.60;99.90;;;;;;4932805;29;20229;-70
2021/08/05 10:39:47;;;;;;;11.10;10.10;;;22.70;99.90;;;;;;4932284;29;20453;-70
2021/08/05 10:42:16;;;;;;;12.57;11.60;;;22.80;99.90;;;;;;4934523;29;20421;-70
2021/08/05 10:44:43;;;;;;;10.60;9.87;;;22.90;99.90;;;;;;4915822;29;20460;-71
2021/08/05 10:47:13;;;;;;;11.20;10.30;;;23.00;99.90;;;;;;4932287;29;20465;-70
2021/08/05 10:49:40;;;;;;;9.13;8.43;;;23.20;99.90;;;;;;4933295;29;20528;-70
2021/08/05 10:52:06;;;;;;;8.23;7.63;;;23.20;99.90;;;;;;4933623;29;20441;-70
2021/08/05 10:54:51;;;;;;;7.23;6.60;;;23.10;98.70;;;;;;4932731;29;20444;-70
2021/08/05 10:57:22;;;;;;;7.20;6.50;;;23.00;98.40;;;;;;4933560;29;21001;-70
2021/08/05 11:00:02;;;;;;;7.27;6.60;;;23.00;98.60;;;;;;4933983;29;20414;-70
2021/08/05 11:02:50;;;;;;;7.13;6.53;;;23.00;98.70;;;;;;4934020;29;20777;-71
2021/08/05 11:05:22;;;;;;;6.30;5.80;;;22.90;99.40;;;;;;4932674;29;20509;-70
2021/08/05 11:07:48;;;;;;;4.97;4.57;;;22.90;99.40;;;;;;4933176;29;21112;-72
2021/08/05 11:10:14;;;;;;;6.00;4.97;;;22.90;98.80;;;;;;4936733;29;20499;-71
2021/08/05 11:13:06;;;;;;;5.80;5.30;;;22.80;98.20;;;;;;4965876;28;20947;-71
2021/08/05 11:15:35;;;;;;;6.37;5.40;;;22.80;98.20;;;;;;4958704;29;20201;-71
2021/08/05 11:18:07;;;;;;;6.10;5.60;;;22.90;98.80;;;;;;4951911;29;20483;-71
2021/08/05 11:20:33;;;;;;;5.90;5.43;;;23.00;98.90;;;;;;4934987;29;20417;-72
2021/08/05 11:22:59;;;;;;;5.53;5.13;;;22.90;99.00;;;;;;4932836;28;20462;-70
2021/08/05 11:25:25;;;;;;;4.63;4.23;;;23.00;99.20;;;;;;4897138;29;21309;-72
2021/08/05 11:28:20;;;;;;;5.10;4.73;;;23.10;98.40;;;;;;4916358;29;20211;-71
2021/08/05 11:31:06;;;;;;;5.63;4.70;;;23.20;97.70;;;;;;4906753;29;20171;-70
2021/08/05 11:33:38;;;;;;;4.80;4.40;;;23.20;97.40;;;;;;4920328;29;20476;-70
2021/08/05 11:36:10;;;;;;;4.53;4.13;;;23.00;97.30;;;;;;4937048;29;20517;-70
2021/08/05 11:39:03;;;;;;;5.20;4.70;;;23.20;97.40;;;;;;4937207;29;20776;-71
2021/08/05 11:41:48;;;;;;;5.27;4.60;;;23.20;97.60;;;;;;4936898;29;20410;-72
2021/08/05 11:44:44;;;;;;;4.60;4.30;;;23.10;97.20;;;;;;4933692;29;20435;-71
2021/08/05 11:47:29;;;;;;;4.67;4.37;;;23.10;97.00;;;;;;4903779;29;20482;-70
2021/08/05 11:50:12;;;;;;;4.30;4.00;;;23.00;97.30;;;;;;4938554;29;20839;-70
2021/08/05 11:52:41;;;;;;;4.80;3.70;;;23.00;96.80;;;;;;4939807;29;20430;-71
2021/08/05 11:55:06;;;;;;;3.77;3.47;;;23.00;97.00;;;;;;4920333;29;20419;-72
2021/08/05 11:57:44;;;;;;;5.50;3.50;;;23.20;96.80;;;;;;4920349;29;20415;-72
2021/08/05 12:00:22;;;;;;;3.20;3.00;;;23.30;96.10;;;;;;4917277;29;20175;-71
2021/08/05 12:02:50;;;;;;;3.30;3.10;;;23.30;95.50;;;;;;4917472;29;20446;-71
2021/08/05 12:05:18;;;;;;;3.43;3.13;;;23.30;94.90;;;;;;4919364;29;20415;-70
2021/08/05 12:07:48;;;;;;;3.60;2.57;;;23.20;94.10;;;;;;4920031;29;21046;-71
2021/08/05 12:10:28;;;;;;;2.93;2.73;;;23.20;94.20;;;;;;4920540;29;20470;-70
2021/08/05 12:13:11;;;;;;;2.83;2.63;;;23.40;94.30;;;;;;4920743;29;20462;-70
2021/08/05 12:15:41;;;;;;;2.70;2.50;;;23.40;93.80;;;;;;4902404;29;20431;-69
2021/08/05 12:18:15;;;;;;;3.43;3.13;;;23.50;93.60;;;;;;4916427;29;20425;-70
2021/08/05 12:20:45;;;;;;;4.63;2.77;;;23.50;93.90;;;;;;4953523;29;20421;-70
2021/08/05 12:23:21;;;;;;;2.90;2.70;;;23.50;94.20;;;;;;4939608;29;20445;-71
2021/08/05 12:25:51;;;;;;;3.57;3.20;;;23.50;93.80;;;;;;4921420;29;20456;-69
2021/08/05 12:28:19;;;;;;;2.90;2.70;;;23.50;93.50;;;;;;4938432;29;20461;-69
2021/08/05 12:30:48;;;;;;;3.03;2.80;;;23.50;93.50;;;;;;4944735;29;20441;-69
2021/08/05 12:33:15;;;;;;;3.00;2.80;;;23.60;93.60;;;;;;4950375;29;20434;-71
2021/08/05 12:35:42;;;;;;;3.17;2.97;;;23.60;93.40;;;;;;4937034;29;20432;-70
2021/08/05 12:38:12;;;;;;;3.00;2.70;;;23.50;93.50;;;;;;4912367;29;20491;-70
2021/08/05 12:40:46;;;;;;;2.63;2.43;;;23.60;93.30;;;;;;4931593;29;20454;-71
2021/08/05 12:43:13;;;;;;;3.10;2.90;;;23.70;93.10;;;;;;4928048;29;20998;-70